createdAt,value
2022-09-01T00:06:13.391Z,0.95
2022-09-01T00:16:15.356Z,1.40
2022-09-01T00:26:16.859Z,1.10
2022-09-01T00:36:18.583Z,1.10
2022-09-01T00:46:29.052Z,1.35
2022-09-01T00:56:31.752Z,1.15
2022-09-01T01:06:33.154Z,1.05
2022-09-01T01:16:34.585Z,1.50
2022-09-01T01:26:36.293Z,1.30
2022-09-01T01:46:45.455Z,1.40
2022-09-01T01:56:48.010Z,1.30
2022-09-01T02:06:50.483Z,1.50
2022-09-01T02:16:52.238Z,1.20
2022-09-01T02:26:53.673Z,1.20
2022-09-01T02:36:55.815Z,1.80
2022-09-01T02:46:59.262Z,1.50
2022-09-01T02:57:01.016Z,1.75
2022-09-01T03:07:06.379Z,1.90
2022-09-01T03:17:07.813Z,1.85
2022-09-01T03:27:09.593Z,1.92
2022-09-01T03:37:10.925Z,1.80
2022-09-01T03:47:12.366Z,2.10
2022-09-01T03:57:13.972Z,2.20
2022-09-01T04:07:19.383Z,1.92
2022-09-01T04:17:21.034Z,2.63
2022-09-01T04:27:22.400Z,2.27
2022-09-01T04:37:23.788Z,2.37
2022-09-01T04:47:28.952Z,2.63
2022-09-01T04:57:31.686Z,3.08
2022-09-01T05:07:33.179Z,3.03
2022-09-01T05:17:34.574Z,2.30
2022-09-01T05:27:35.958Z,2.53
2022-09-01T05:37:37.348Z,3.13
2022-09-01T05:47:39.232Z,2.83
2022-09-01T05:57:40.991Z,2.85
2022-09-01T06:07:43.103Z,2.05
2022-09-01T06:17:46.303Z,1.85
2022-09-01T06:27:48.268Z,1.60
2022-09-01T06:37:50.591Z,1.67
2022-09-01T06:48:08.397Z,1.45
2022-09-01T07:09:19.081Z,1.40
2022-09-01T07:19:01.805Z,1.35
2022-09-01T07:29:06.328Z,1.35
2022-09-01T07:42:57.802Z,1.55
2022-09-01T07:50:13.029Z,1.15
2022-09-01T08:00:15.789Z,1.25
2022-09-01T08:10:23.685Z,0.80
2022-09-01T08:20:25.234Z,0.52
2022-09-01T08:30:30.515Z,0.60
2022-09-01T08:40:32.119Z,0.52
2022-09-01T08:50:34.893Z,0.70
2022-09-01T09:00:55.040Z,0.50
2022-09-01T09:11:05.681Z,0.50
2022-09-01T09:21:12.079Z,0.70
2022-09-01T09:31:25.509Z,0.65
2022-09-01T09:41:27.512Z,0.70
2022-09-01T09:51:29.056Z,0.35
2022-09-01T10:01:30.616Z,0.32
2022-09-01T10:11:41.508Z,0.50
2022-09-01T10:21:44.243Z,0.40
2022-09-01T10:31:45.607Z,0.60
2022-09-01T10:41:53.120Z,0.40
2022-09-01T10:52:07.455Z,0.40
2022-09-01T11:02:34.810Z,0.38
2022-09-01T11:12:43.191Z,0.30
2022-09-01T11:22:56.849Z,0.35
2022-09-01T11:33:01.998Z,0.40
2022-09-01T11:43:06.346Z,0.40
2022-09-01T11:53:15.309Z,0.40
2022-09-01T12:03:24.636Z,0.38
2022-09-01T12:13:26.220Z,0.43
2022-09-01T12:23:33.832Z,0.32
2022-09-01T12:33:35.352Z,0.40
2022-09-01T12:43:38.133Z,0.45
2022-09-01T12:53:39.794Z,0.40
2022-09-01T13:03:41.178Z,0.50
2022-09-01T13:13:43.018Z,0.35
2022-09-01T13:23:44.350Z,0.50
2022-09-01T13:44:06.978Z,0.57
2022-09-01T13:54:08.315Z,0.45
2022-09-01T14:04:09.801Z,0.45
2022-09-01T14:14:11.696Z,0.70
2022-09-01T14:24:13.037Z,0.70
2022-09-01T14:34:14.353Z,0.50
2022-09-01T14:44:15.805Z,0.30
2022-09-01T14:54:17.098Z,0.50
2022-09-01T15:04:18.492Z,0.35
2022-09-01T15:14:19.815Z,0.50
2022-09-01T15:24:21.131Z,0.32
2022-09-01T15:34:22.415Z,0.50
2022-09-01T15:44:23.725Z,0.77
2022-09-01T15:54:29.722Z,0.50
2022-09-01T16:04:31.924Z,0.60
2022-09-01T16:14:33.352Z,0.30
2022-09-01T16:24:46.128Z,0.30
2022-09-01T16:34:47.762Z,0.40
2022-09-01T16:44:57.521Z,0.50
2022-09-01T16:54:58.805Z,0.43
2022-09-01T17:05:23.466Z,0.60
2022-09-01T17:15:34.008Z,0.40
2022-09-01T17:25:44.759Z,0.60
2022-09-01T17:35:50.462Z,0.57
2022-09-01T17:45:59.302Z,0.40
2022-09-01T17:56:03.232Z,0.35
2022-09-01T18:06:08.573Z,0.50
2022-09-01T18:16:15.528Z,0.60
2022-09-01T18:26:27.038Z,0.40
2022-09-01T18:36:47.105Z,0.63
2022-09-01T18:46:54.575Z,0.57
2022-09-01T18:57:03.986Z,0.52
2022-09-01T19:07:24.110Z,0.60
2022-09-01T19:17:37.451Z,0.50
2022-09-01T19:27:38.811Z,0.55
2022-09-01T19:37:40.455Z,0.47
2022-09-01T19:47:45.305Z,0.63
2022-09-01T19:57:52.661Z,0.70
2022-09-01T20:07:56.718Z,0.50
2022-09-01T20:17:59.346Z,0.60
2022-09-01T20:28:19.610Z,0.40
2022-09-01T20:38:24.262Z,0.60
2022-09-01T20:48:26.672Z,0.68
2022-09-01T20:58:27.958Z,0.80
2022-09-01T21:08:32.282Z,0.73
2022-09-01T21:18:48.631Z,0.70
2022-09-01T21:28:52.980Z,0.57
2022-09-01T21:38:54.295Z,0.60
2022-09-01T21:48:55.611Z,1.10
2022-09-01T21:58:57.016Z,0.70
2022-09-01T22:09:00.108Z,0.70
2022-09-01T22:19:01.612Z,0.82
2022-09-01T22:29:04.513Z,0.73
2022-09-01T22:39:07.087Z,0.73
2022-09-01T22:49:09.930Z,0.70
2022-09-01T23:09:12.958Z,1.20
2022-09-01T23:29:15.655Z,1.00
2022-09-01T23:39:17.303Z,0.93
2022-09-01T23:49:18.896Z,1.20
2022-09-01T23:59:27.245Z,1.13
